Time;durP1;ratioP1;P1;durP2;ratioP2;P2;SDS_P1;SDS_P2;PMS_P1;PMS_P2;Temp;Humidity;BMP_temperature;BMP_pressure;BME280_temperature;BME280_humidity;BME280_pressure;Samples;Min_cycle;Max_cycle;Signal;HPM_P1;HPM_P2
2023/09/02 00:01:21;;;;;;;5.47;4.97;;;;;;;16.69;89.35;98130.97;5008217;28;20544;-81
2023/09/02 00:03:48;;;;;;;6.40;5.40;;;;;;;16.72;89.13;98125.03;5008209;28;20484;-81
2023/09/02 00:06:15;;;;;;;6.73;4.73;;;;;;;16.59;89.86;98130.69;5006662;28;20460;-81
2023/09/02 00:08:42;;;;;;;6.20;5.60;;;;;;;16.58;90.07;98122.75;5009790;28;21072;-81
2023/09/02 00:11:08;;;;;;;5.57;4.90;;;;;;;16.62;89.91;98132.97;5008215;28;20461;-82
2023/09/02 00:13:38;;;;;;;6.20;5.60;;;;;;;16.65;89.73;98129.78;5007402;28;20503;-81
2023/09/02 00:16:05;;;;;;;4.77;4.37;;;;;;;16.72;89.22;98127.75;5008133;28;20457;-83
2023/09/02 00:18:31;;;;;;;6.83;4.90;;;;;;;16.71;89.61;98131.56;5009052;28;20535;-82
2023/09/02 00:20:58;;;;;;;5.67;5.10;;;;;;;16.63;89.74;98131.91;5009863;28;20456;-82
2023/09/02 00:23:25;;;;;;;5.90;5.03;;;;;;;16.49;90.30;98141.41;5007076;28;20584;-81
2023/09/02 00:25:52;;;;;;;7.07;4.93;;;;;;;16.40;91.21;98134.63;5009021;28;20456;-81
2023/09/02 00:28:19;;;;;;;6.13;5.30;;;;;;;16.59;90.43;98136.16;5008337;28;20473;-81
2023/09/02 00:30:47;;;;;;;5.90;5.40;;;;;;;16.57;90.19;98141.03;5008368;28;20582;-82
2023/09/02 00:33:13;;;;;;;7.07;5.90;;;;;;;16.57;90.11;98142.97;5004697;28;20507;-82
2023/09/02 00:35:40;;;;;;;7.60;5.90;;;;;;;16.48;90.13;98150.69;5008162;28;20510;-82
2023/09/02 00:38:07;;;;;;;6.80;5.83;;;;;;;16.24;90.31;98147.13;5009118;28;20564;-81
2023/09/02 00:40:34;;;;;;;5.60;4.80;;;;;;;16.15;91.33;98147.69;5008733;28;20457;-81
2023/09/02 00:43:01;;;;;;;8.70;6.10;;;;;;;16.01;91.96;98141.59;5011397;28;20460;-81
2023/09/02 00:45:27;;;;;;;6.43;5.83;;;;;;;16.12;91.52;98138.06;5012559;28;20956;-81
2023/09/02 00:47:56;;;;;;;5.93;5.13;;;;;;;16.02;92.43;98146.81;5012650;28;20479;-81
2023/09/02 00:50:23;;;;;;;7.33;6.50;;;;;;;16.02;91.98;98146.00;5012651;28;20546;-82
2023/09/02 00:52:50;;;;;;;8.00;7.30;;;;;;;15.91;93.10;98149.53;5011929;28;20900;-82
2023/09/02 00:55:17;;;;;;;7.63;6.93;;;;;;;15.97;92.89;98148.56;5011502;28;20468;-80
2023/09/02 00:57:45;;;;;;;6.37;5.67;;;;;;;16.01;92.80;98150.63;5011925;28;20594;-82
2023/09/02 01:00:13;;;;;;;10.40;7.83;;;;;;;15.94;93.32;98146.31;5012423;28;20988;-82
2023/09/02 01:02:40;;;;;;;7.77;7.07;;;;;;;15.88;93.89;98145.38;5013294;28;21109;-81
2023/09/02 01:05:09;;;;;;;10.00;7.90;;;;;;;15.86;94.05;98130.31;5010363;28;20809;-82
2023/09/02 01:07:36;;;;;;;8.43;7.43;;;;;;;15.83;94.58;98139.78;5010407;28;20473;-82
2023/09/02 01:10:03;;;;;;;6.77;6.13;;;;;;;15.92;94.32;98141.09;5006962;28;20654;-81
2023/09/02 01:12:31;;;;;;;8.80;7.20;;;;;;;15.77;94.60;98130.63;5010786;28;20465;-82
2023/09/02 01:14:58;;;;;;;7.57;6.80;;;;;;;15.81;94.97;98139.19;5010494;28;20456;-82
2023/09/02 01:17:25;;;;;;;8.70;6.80;;;;;;;15.86;94.34;98139.31;5011506;28;21050;-82
2023/09/02 01:19:52;;;;;;;9.17;7.20;;;;;;;15.87;94.48;98138.25;5011293;28;20531;-82
2023/09/02 01:22:34;;;;;;;7.00;6.33;;;;;;;15.82;94.89;98143.56;5010728;28;20452;-82
2023/09/02 01:25:11;;;;;;;9.60;7.63;;;;;;;15.93;94.38;98142.75;5012272;28;20991;-82
2023/09/02 01:27:43;;;;;;;6.87;6.17;;;;;;;15.93;94.50;98142.75;5011796;28;21121;-82
2023/09/02 01:30:16;;;;;;;6.83;6.23;;;;;;;15.80;94.89;98142.97;5010740;28;20587;-82
2023/09/02 01:32:44;;;;;;;9.37;7.70;;;;;;;15.70;95.48;98143.53;5009376;28;20530;-82
2023/09/02 01:35:15;;;;;;;8.53;7.70;;;;;;;15.69;95.56;98144.59;5012694;28;20469;-82
2023/09/02 01:37:44;;;;;;;8.07;7.27;;;;;;;15.78;95.21;98142.38;5010119;28;20473;-82
2023/09/02 01:40:14;;;;;;;8.43;7.57;;;;;;;15.70;95.30;98149.00;5011634;28;20556;-82
2023/09/02 01:42:43;;;;;;;8.63;7.80;;;;;;;15.68;95.15;98144.81;5010980;28;20471;-82
2023/09/02 01:45:11;;;;;;;8.70;7.77;;;;;;;15.61;95.60;98144.09;5011103;28;20453;-82
2023/09/02 01:47:38;;;;;;;8.03;7.00;;;;;;;15.59;95.98;98151.69;5007960;28;20484;-82
2023/09/02 01:50:07;;;;;;;8.83;7.93;;;;;;;15.57;95.70;98153.81;5012838;28;20572;-82
2023/09/02 01:52:34;;;;;;;9.03;7.80;;;;;;;15.53;96.14;98152.59;5008932;28;20844;-83
2023/09/02 01:55:01;;;;;;;8.07;7.27;;;;;;;15.55;96.11;98153.19;5010576;28;20505;-82
2023/09/02 01:57:28;;;;;;;7.77;7.10;;;;;;;15.52;95.94;98153.66;5009238;28;20981;-82
2023/09/02 01:59:56;;;;;;;8.10;7.50;;;;;;;15.47;96.48;98159.78;5009501;28;21000;-82
2023/09/02 02:02:23;;;;;;;8.73;7.73;;;;;;;15.46;96.51;98160.84;5011263;28;20484;-82
2023/09/02 02:04:53;;;;;;;8.17;7.37;;;;;;;15.57;96.07;98159.28;5010148;28;20539;-82
2023/09/02 02:07:23;;;;;;;8.93;8.03;;;;;;;15.49;96.10;98159.56;5009472;28;20556;-82
2023/09/02 02:09:53;;;;;;;8.07;7.30;;;;;;;15.44;96.03;98162.97;5010256;28;20481;-83
2023/09/02 02:12:20;;;;;;;8.40;7.70;;;;;;;15.41;96.46;98161.53;5009940;28;20479;-82
2023/09/02 02:14:46;;;;;;;8.67;7.57;;;;;;;15.47;96.13;98165.25;5009867;28;20960;-83
2023/09/02 02:17:15;;;;;;;8.43;7.63;;;;;;;15.48;96.20;98168.81;5009490;28;20480;-82
2023/09/02 02:19:42;;;;;;;8.60;7.80;;;;;;;15.55;96.15;98172.28;5011645;28;20465;-83
2023/09/02 02:22:09;;;;;;;9.20;7.33;;;;;;;15.55;96.09;98178.56;5010380;28;20467;-81
2023/09/02 02:24:36;;;;;;;7.93;7.27;;;;;;;15.57;96.01;98176.47;5010185;28;20635;-83
2023/09/02 02:27:03;;;;;;;8.87;7.80;;;;;;;15.36;96.59;98172.28;5009792;28;20524;-82
2023/09/02 02:29:30;;;;;;;9.80;8.80;;;;;;;15.42;96.46;98171.38;5009929;28;20449;-83
2023/09/02 02:31:57;;;;;;;8.40;7.60;;;;;;;15.33;96.49;98170.03;5009619;28;20447;-83
2023/09/02 02:34:25;;;;;;;8.43;7.73;;;;;;;15.46;95.89;98174.50;5009603;28;20453;-82
2023/09/02 02:36:52;;;;;;;8.60;7.80;;;;;;;15.36;96.10;98183.22;5009412;28;21011;-82
2023/09/02 02:39:19;;;;;;;10.67;8.10;;;;;;;15.30;96.78;98181.38;5011041;28;20484;-82
2023/09/02 02:41:45;;;;;;;8.93;7.13;;;;;;;15.27;96.58;98165.47;5014156;28;20460;-82
2023/09/02 02:44:12;;;;;;;9.00;8.10;;;;;;;15.25;96.79;98173.09;5011809;28;20484;-82
2023/09/02 02:46:39;;;;;;;7.30;6.70;;;;;;;15.31;96.70;98177.59;5009342;28;20523;-82
2023/09/02 02:49:06;;;;;;;9.10;8.30;;;;;;;15.19;96.84;98179.44;5009706;28;20449;-83
2023/09/02 02:51:34;;;;;;;9.87;8.97;;;;;;;15.13;97.35;98174.91;5009852;28;20504;-83
2023/09/02 02:54:01;;;;;;;10.30;9.40;;;;;;;15.15;97.41;98177.41;5010562;28;20517;-82
2023/09/02 02:56:27;;;;;;;9.37;8.37;;;;;;;15.11;97.65;98171.56;5008755;28;20554;-82
2023/09/02 02:58:55;;;;;;;10.27;9.27;;;;;;;15.05;97.58;98172.47;5009379;28;20564;-83
2023/09/02 03:01:21;;;;;;;9.47;7.80;;;;;;;15.06;97.77;98174.13;5010925;28;20547;-82
2023/09/02 03:03:48;;;;;;;9.77;8.40;;;;;;;15.15;97.40;98175.50;5008469;28;20481;-82
2023/09/02 03:06:17;;;;;;;9.33;8.53;;;;;;;15.02;97.49;98175.66;5008309;28;20455;-82
2023/09/02 03:08:46;;;;;;;10.00;8.90;;;;;;;15.00;97.41;98164.13;5008884;28;20461;-83
2023/09/02 03:11:13;;;;;;;11.77;9.97;;;;;;;14.88;98.06;98165.97;5010639;28;20833;-83
2023/09/02 03:13:39;;;;;;;10.40;9.47;;;;;;;14.92;97.80;98159.03;5008656;28;20495;-83
2023/09/02 03:16:06;;;;;;;10.90;9.80;;;;;;;14.91;97.87;98170.97;5007724;28;20635;-83
2023/09/02 03:18:33;;;;;;;9.73;8.83;;;;;;;14.94;97.70;98167.81;5008499;28;20563;-83
2023/09/02 03:21:03;;;;;;;10.37;9.37;;;;;;;14.96;97.99;98179.28;5008043;28;20467;-83
2023/09/02 03:23:30;;;;;;;10.73;9.53;;;;;;;15.01;97.44;98182.16;5009439;28;20473;-83
2023/09/02 03:26:07;;;;;;;8.23;7.53;;;;;;;15.09;96.99;98185.44;5009994;28;20548;-83
2023/09/02 03:28:34;;;;;;;9.87;9.03;;;;;;;15.17;96.71;98181.56;5009083;28;20453;-83
2023/09/02 03:31:04;;;;;;;11.93;9.87;;;;;;;15.06;96.63;98180.44;5009236;28;20520;-83
2023/09/02 03:33:31;;;;;;;11.27;10.27;;;;;;;15.01;96.54;98184.88;5009546;28;20464;-83
2023/09/02 03:35:59;;;;;;;10.97;9.97;;;;;;;15.10;96.70;98189.00;5011302;28;20598;-83
2023/09/02 03:38:26;;;;;;;10.10;9.10;;;;;;;15.15;96.60;98191.88;5007984;28;20499;-84
2023/09/02 03:40:53;;;;;;;9.90;9.10;;;;;;;14.97;96.75;98178.22;5008179;28;20473;-83
2023/09/02 03:43:22;;;;;;;8.70;8.00;;;;;;;15.03;96.72;98189.06;5007172;28;20460;-83
2023/09/02 03:45:49;;;;;;;11.07;10.07;;;;;;;14.78;97.66;98172.78;5009173;28;20461;-82
2023/09/02 03:48:18;;;;;;;10.50;9.53;;;;;;;14.90;97.63;98180.22;5009959;28;20844;-83
2023/09/02 03:51:03;;;;;;;10.23;9.33;;;;;;;14.85;97.57;98182.78;5008930;28;20923;-83
2023/09/02 03:53:30;;;;;;;10.17;9.20;;;;;;;15.00;97.24;98181.31;5008115;28;20466;-83
2023/09/02 03:55:57;;;;;;;10.80;9.80;;;;;;;14.94;97.11;98181.44;5008079;28;20465;-83
2023/09/02 03:58:26;;;;;;;9.10;8.30;;;;;;;15.02;96.99;98183.81;5009338;28;20480;-83
2023/09/02 04:00:52;;;;;;;9.10;8.30;;;;;;;14.96;96.51;98190.19;5008036;28;20541;-83
2023/09/02 04:03:21;;;;;;;7.43;6.83;;;;;;;14.96;95.98;98198.34;5010451;28;20967;-83
2023/09/02 04:05:47;;;;;;;7.37;6.70;;;;;;;14.97;95.52;98192.69;5010626;28;20449;-83
2023/09/02 04:08:16;;;;;;;7.53;6.93;;;;;;;15.07;95.84;98193.00;5009348;28;20556;-83
2023/09/02 04:10:43;;;;;;;7.10;6.50;;;;;;;15.17;95.90;98202.53;5006444;28;21376;-84
2023/09/02 04:13:10;;;;;;;9.23;8.40;;;;;;;15.31;95.22;98204.03;5008282;28;20455;-83
2023/09/02 04:15:38;;;;;;;8.93;8.10;;;;;;;15.10;96.06;98198.00;5009482;28;20511;-83
2023/09/02 04:18:05;;;;;;;10.47;9.50;;;;;;;14.89;96.93;98206.63;5007598;28;20479;-83
2023/09/02 04:20:35;;;;;;;10.27;9.37;;;;;;;15.01;97.09;98201.25;5008374;28;20460;-83
2023/09/02 04:23:02;;;;;;;9.63;8.63;;;;;;;15.18;95.96;98198.75;5009212;28;20476;-83
2023/09/02 04:25:29;;;;;;;10.20;9.20;;;;;;;15.07;96.23;98201.19;5008975;28;20557;-83
2023/09/02 04:27:56;;;;;;;10.03;9.10;;;;;;;14.93;97.03;98207.84;5007645;28;21068;-83
2023/09/02 04:30:24;;;;;;;10.10;9.13;;;;;;;14.94;97.13;98195.06;5007791;28;20525;-83
2023/09/02 04:32:52;;;;;;;8.73;7.83;;;;;;;14.83;97.08;98202.06;5009259;28;20464;-83
2023/09/02 04:35:19;;;;;;;10.90;9.80;;;;;;;14.79;97.70;98203.56;5007940;28;20874;-84
2023/09/02 04:37:45;;;;;;;9.53;7.90;;;;;;;14.86;96.90;98200.78;5005214;28;20537;-83
2023/09/02 04:40:13;;;;;;;10.33;9.43;;;;;;;14.84;97.26;98211.09;5006625;28;20543;-82
2023/09/02 04:42:41;;;;;;;9.27;8.37;;;;;;;14.61;97.95;98212.56;5009552;28;20445;-83
2023/09/02 04:45:09;;;;;;;9.50;8.70;;;;;;;14.71;97.82;98218.31;5007129;28;20539;-83
2023/09/02 04:47:35;;;;;;;10.30;9.30;;;;;;;14.65;98.03;98223.81;5007668;28;21147;-83
2023/09/02 04:50:04;;;;;;;10.23;9.13;;;;;;;14.66;98.04;98218.16;5008363;28;21491;-83
2023/09/02 04:52:31;;;;;;;9.73;8.80;;;;;;;14.65;97.82;98219.22;5007730;28;20504;-84
2023/09/02 04:54:58;;;;;;;10.77;9.77;;;;;;;14.56;98.25;98220.56;5007143;28;20544;-83
2023/09/02 04:57:25;;;;;;;8.87;8.00;;;;;;;14.67;97.99;98214.38;5008709;28;20989;-83
2023/09/02 04:59:51;;;;;;;10.13;9.33;;;;;;;14.71;97.50;98226.50;5009453;28;20511;-83
2023/09/02 05:02:18;;;;;;;10.40;9.50;;;;;;;14.78;97.22;98231.88;5007314;28;20503;-83
2023/09/02 05:04:45;;;;;;;10.30;9.50;;;;;;;14.70;97.49;98233.00;5008294;28;20452;-83
2023/09/02 05:07:13;;;;;;;8.90;8.10;;;;;;;14.85;97.44;98234.56;5005486;28;20537;-83
2023/09/02 05:09:40;;;;;;;10.90;9.50;;;;;;;14.82;97.13;98238.56;5005460;28;20541;-83
2023/09/02 05:12:07;;;;;;;11.53;10.57;;;;;;;14.80;97.33;98232.50;5007745;28;20495;-83
2023/09/02 05:14:34;;;;;;;10.33;9.00;;;;;;;14.86;96.90;98238.94;5008350;28;20464;-83
2023/09/02 05:17:01;;;;;;;9.37;7.83;;;;;;;14.86;96.98;98238.94;5005383;28;20509;-83
2023/09/02 05:19:27;;;;;;;9.33;8.50;;;;;;;14.85;97.16;98231.81;5005812;28;20893;-83
2023/09/02 05:21:57;;;;;;;10.90;9.90;;;;;;;14.70;97.04;98241.16;5007280;28;20465;-84
2023/09/02 05:24:25;;;;;;;8.70;8.00;;;;;;;14.69;97.45;98242.22;5006071;28;20903;-83
2023/09/02 05:26:52;;;;;;;9.60;8.60;;;;;;;14.67;97.42;98241.63;5008238;28;21021;-83
2023/09/02 05:29:18;;;;;;;9.13;8.33;;;;;;;14.75;97.09;98241.34;5011652;28;20506;-83
2023/09/02 05:31:45;;;;;;;8.40;7.60;;;;;;;14.61;97.53;98242.53;5011690;28;20484;-82
2023/09/02 05:34:12;;;;;;;8.63;7.83;;;;;;;14.61;97.70;98236.25;5010509;28;20547;-83
2023/09/02 05:36:39;;;;;;;9.10;8.20;;;;;;;14.48;98.07;98241.78;5010457;28;20827;-83
2023/09/02 05:39:06;;;;;;;7.80;7.20;;;;;;;14.61;97.63;98242.53;5008921;28;20453;-83
2023/09/02 05:41:34;;;;;;;7.90;6.80;;;;;;;14.68;97.60;98243.28;5011598;28;20472;-83
2023/09/02 05:44:01;;;;;;;8.30;7.60;;;;;;;14.74;97.14;98236.94;5011208;28;20452;-83
2023/09/02 05:46:28;;;;;;;6.83;6.23;;;;;;;14.74;96.88;98239.66;5011654;28;20551;-83
2023/09/02 05:48:54;;;;;;;6.30;5.80;;;;;;;14.96;96.56;98244.69;5008204;28;21147;-82
2023/09/02 05:51:21;;;;;;;7.97;7.17;;;;;;;14.95;96.64;98249.31;5007739;28;20484;-83
2023/09/02 05:53:48;;;;;;;7.77;6.97;;;;;;;15.03;96.43;98253.66;5012006;28;20512;-83
2023/09/02 05:56:15;;;;;;;8.07;7.43;;;;;;;15.14;95.86;98242.00;5006410;28;21016;-87
2023/09/02 05:58:43;;;;;;;7.50;6.90;;;;;;;15.20;95.71;98246.56;5007050;28;20465;-84
2023/09/02 06:01:10;;;;;;;9.07;6.77;;;;;;;15.01;96.37;98250.31;5011747;28;20461;-82
2023/09/02 06:03:36;;;;;;;5.90;5.30;;;;;;;15.14;96.15;98247.47;5010697;28;20457;-83
2023/09/02 06:06:09;;;;;;;5.70;4.93;;;;;;;15.30;95.59;98255.03;5009687;28;20508;-84
2023/09/02 06:08:36;;;;;;;5.77;5.27;;;;;;;15.36;95.49;98251.38;5006651;28;20813;-84
2023/09/02 06:11:03;;;;;;;5.57;5.17;;;;;;;15.48;95.12;98253.38;5009890;28;20825;-84
2023/09/02 06:13:30;;;;;;;5.30;4.87;;;;;;;15.78;94.41;98259.72;5006803;28;20463;-85
2023/09/02 06:15:59;;;;;;;4.27;3.97;;;;;;;16.37;92.13;98252.56;5004342;28;20575;-78
2023/09/02 06:18:26;;;;;;;4.90;4.50;;;;;;;16.89;89.93;98252.81;5003851;28;20449;-78
2023/09/02 06:20:53;;;;;;;4.20;3.80;;;;;;;17.35;86.84;98244.56;4999847;28;20449;-79
2023/09/02 06:23:20;;;;;;;4.70;4.30;;;;;;;17.63;86.05;98246.50;5003787;28;20573;-84
2023/09/02 06:25:55;;;;;;;4.47;4.07;;;;;;;18.16;84.27;98250.06;5007801;28;20468;-76
2023/09/02 06:28:22;;;;;;;4.30;4.00;;;;;;;18.30;82.36;98245.91;5008631;28;20462;-76
2023/09/02 06:30:49;;;;;;;4.60;4.20;;;;;;;18.38;80.73;98248.25;5008629;28;20471;-76
2023/09/02 06:33:18;;;;;;;4.30;3.90;;;;;;;18.89;79.86;98238.16;5010829;28;20520;-76
2023/09/02 06:35:44;;;;;;;4.60;4.20;;;;;;;18.74;78.63;98245.06;5006771;28;22296;-82
2023/09/02 06:38:11;;;;;;;4.23;3.83;;;;;;;18.93;78.06;98244.78;5007744;28;20868;-76
2023/09/02 06:40:38;;;;;;;4.30;4.00;;;;;;;19.11;77.20;98247.28;5007501;28;20493;-76
2023/09/02 06:43:05;;;;;;;4.27;3.87;;;;;;;19.52;76.31;98242.38;5010652;28;20572;-76
2023/09/02 06:45:31;;;;;;;4.07;3.70;;;;;;;19.74;75.69;98245.97;5007049;28;20940;-76
2023/09/02 06:47:58;;;;;;;3.53;3.20;;;;;;;19.71;74.58;98252.81;5004650;28;20483;-77
2023/09/02 06:50:26;;;;;;;3.40;3.13;;;;;;;19.84;73.90;98257.06;5007578;28;21014;-79
2023/09/02 06:52:53;;;;;;;3.80;3.50;;;;;;;20.18;72.86;98271.47;5000233;28;20497;-77
2023/09/02 06:55:20;;;;;;;4.17;3.43;;;;;;;20.67;71.06;98266.78;5007334;28;20466;-78
2023/09/02 06:57:47;;;;;;;3.67;3.37;;;;;;;21.12;68.94;98271.78;5008804;28;20550;-79
2023/09/02 07:00:14;;;;;;;4.43;3.40;;;;;;;20.92;70.17;98279.91;5007136;28;20452;-77
2023/09/02 07:02:42;;;;;;;3.53;3.23;;;;;;;20.79;69.41;98272.13;5003519;28;20493;-72
2023/09/02 07:05:09;;;;;;;3.63;3.33;;;;;;;20.59;69.35;98271.91;5008289;28;20463;-70
2023/09/02 07:07:38;;;;;;;3.63;2.93;;;;;;;20.63;70.81;98268.38;5007378;28;21009;-72
2023/09/02 07:10:05;;;;;;;2.90;2.70;;;;;;;20.85;69.52;98275.72;5006967;28;20962;-71
2023/09/02 07:12:32;;;;;;;3.27;2.97;;;;;;;21.58;67.34;98274.88;5007092;28;20491;-71
2023/09/02 07:14:59;;;;;;;3.17;2.97;;;;;;;21.60;66.66;98272.69;5006559;28;20535;-77
2023/09/02 07:17:28;;;;;;;4.03;3.00;;;;;;;21.67;66.51;98273.28;5009395;28;21013;-78
2023/09/02 07:19:56;;;;;;;2.87;2.57;;;;;;;22.05;64.98;98280.38;5009947;28;20528;-77
2023/09/02 07:22:22;;;;;;;3.13;2.80;;;;;;;22.11;64.58;98282.00;5008282;28;20465;-72
2023/09/02 07:24:51;;;;;;;5.27;3.00;;;;;;;22.52;63.00;98279.34;5009367;28;20528;-75
2023/09/02 07:27:17;;;;;;;3.10;2.90;;;;;;;22.95;61.16;98274.47;5005717;28;20598;-73
2023/09/02 07:29:44;;;;;;;4.40;2.70;;;;;;;23.01;61.06;98279.72;5005971;28;20453;-74
2023/09/02 07:32:11;;;;;;;4.57;3.23;;;;;;;23.29;59.77;98281.06;5007112;28;20495;-75
2023/09/02 07:34:41;;;;;;;4.63;2.73;;;;;;;23.03;61.07;98277.50;5006939;28;20470;-73
2023/09/02 07:37:08;;;;;;;3.07;2.50;;;;;;;23.87;58.95;98273.19;5006882;28;20488;-73
2023/09/02 07:39:34;;;;;;;2.73;2.53;;;;;;;24.53;57.38;98283.13;5003038;28;21044;-73
2023/09/02 07:42:03;;;;;;;3.43;2.50;;;;;;;24.40;57.43;98279.88;5009799;28;20456;-73
2023/09/02 07:44:29;;;;;;;2.87;2.50;;;;;;;24.48;57.60;98286.75;5008476;28;20562;-73
2023/09/02 07:46:56;;;;;;;3.37;2.50;;;;;;;23.95;57.90;98294.75;5009722;28;20569;-76
2023/09/02 07:49:23;;;;;;;2.90;2.70;;;;;;;23.71;59.89;98296.50;5008153;28;20470;-75
2023/09/02 07:51:50;;;;;;;2.70;2.50;;;;;;;23.85;58.32;98294.75;5006274;28;20496;-77
2023/09/02 07:54:17;;;;;;;2.57;2.37;;;;;;;23.70;58.80;98297.59;5003046;28;20461;-77
2023/09/02 07:56:43;;;;;;;5.00;3.10;;;;;;;23.58;59.86;98294.31;5006426;28;21087;-77
2023/09/02 07:59:11;;;;;;;2.90;2.70;;;;;;;23.89;58.50;98298.63;5008112;28;20461;-77
2023/09/02 08:01:38;;;;;;;3.03;2.40;;;;;;;24.19;58.20;98292.13;5008302;28;20527;-77
2023/09/02 08:04:06;;;;;;;3.50;2.83;;;;;;;24.68;55.67;98296.88;5008938;28;20553;-78
2023/09/02 08:06:33;;;;;;;2.87;2.60;;;;;;;24.44;56.48;98305.03;5008804;28;20530;-76
2023/09/02 08:09:00;;;;;;;4.20;2.50;;;;;;;24.79;56.27;98302.03;5007883;28;20460;-77
2023/09/02 08:11:27;;;;;;;2.77;2.57;;;;;;;24.83;55.92;98307.81;5006642;28;20507;-83
2023/09/02 08:13:53;;;;;;;2.57;2.37;;;;;;;25.41;55.28;98300.44;5006421;28;20466;-80
2023/09/02 08:16:21;;;;;;;2.53;2.33;;;;;;;25.34;54.81;98299.13;5001687;28;20478;-79
2023/09/02 08:18:48;;;;;;;3.20;2.40;;;;;;;25.84;54.23;98308.88;5007214;28;20541;-80
2023/09/02 08:21:15;;;;;;;3.47;2.23;;;;;;;26.46;52.31;98295.91;5001242;28;20453;-82
2023/09/02 08:23:42;;;;;;;3.00;2.63;;;;;;;26.31;52.52;98291.41;5005920;28;20485;-77
2023/09/02 08:26:11;;;;;;;2.60;2.40;;;;;;;26.35;52.80;98294.41;5009641;28;20511;-78
2023/09/02 08:28:37;;;;;;;2.17;2.07;;;;;;;26.17;52.60;98301.56;5009229;28;20575;-80
2023/09/02 08:31:04;;;;;;;3.00;2.47;;;;;;;25.74;53.66;98309.81;5005714;28;20500;-81
2023/09/02 08:33:32;;;;;;;2.70;2.50;;;;;;;25.15;55.32;98307.31;5009137;28;20481;-81
2023/09/02 08:35:59;;;;;;;2.63;2.43;;;;;;;26.00;53.58;98306.75;5004919;28;20535;-81
2023/09/02 08:38:26;;;;;;;2.57;2.37;;;;;;;26.11;53.37;98302.72;5008213;28;20549;-81
2023/09/02 08:40:53;;;;;;;2.70;2.50;;;;;;;25.92;53.74;98299.94;5009579;28;20782;-81
2023/09/02 08:43:21;;;;;;;3.40;2.77;;;;;;;26.21;52.13;98297.06;5008412;28;20465;-82
2023/09/02 08:45:50;;;;;;;2.50;2.30;;;;;;;26.45;52.09;98297.03;5006357;28;20543;-82
2023/09/02 08:48:24;;;;;;;2.83;2.40;;;;;;;27.02;50.31;98303.41;5008632;28;20461;-83
2023/09/02 08:50:53;;;;;;;2.73;2.33;;;;;;;27.66;48.41;98296.22;5007215;28;20483;-83
2023/09/02 08:53:20;;;;;;;2.67;2.27;;;;;;;27.47;48.52;98307.38;5005461;28;20488;-76
2023/09/02 08:55:48;;;;;;;3.73;2.20;;;;;;;26.88;51.02;98308.06;5007506;28;20473;-85
2023/09/02 08:58:15;;;;;;;2.60;2.40;;;;;;;27.06;49.55;98298.91;5007600;28;20463;-78
2023/09/02 09:00:43;;;;;;;2.43;2.23;;;;;;;27.76;48.17;98312.72;5001471;28;20465;-78
2023/09/02 09:03:11;;;;;;;2.87;2.67;;;;;;;28.00;46.95;98324.47;5006893;28;20944;-79
2023/09/02 09:05:39;;;;;;;2.50;2.30;;;;;;;27.62;47.86;98323.81;5010028;28;20480;-76
2023/09/02 09:08:07;;;;;;;2.23;2.03;;;;;;;28.17;46.92;98331.41;5010738;28;20461;-77
2023/09/02 09:10:35;;;;;;;2.40;2.20;;;;;;;28.61;44.73;98328.78;5009892;28;20540;-77
2023/09/02 09:13:05;;;;;;;2.10;2.00;;;;;;;29.18;44.48;98322.75;5010695;28;20572;-76
2023/09/02 09:15:33;;;;;;;2.37;2.17;;;;;;;28.58;46.04;98318.28;5012198;28;20461;-76
2023/09/02 09:18:00;;;;;;;2.37;2.27;;;;;;;28.88;44.13;98324.31;5009479;28;20540;-76
2023/09/02 09:20:26;;;;;;;2.07;1.93;;;;;;;29.51;43.77;98326.13;5012304;28;20453;-77
2023/09/02 09:22:53;;;;;;;2.57;2.37;;;;;;;29.37;43.18;98321.41;5011161;28;20476;-76
2023/09/02 09:25:22;;;;;;;2.63;2.43;;;;;;;29.52;43.24;98327.78;5012501;28;20452;-76
2023/09/02 09:27:49;;;;;;;2.63;2.10;;;;;;;29.73;42.50;98334.47;5012145;28;20987;-76
2023/09/02 09:30:27;;;;;;;2.27;1.87;;;;;;;30.03;42.78;98333.66;5009934;28;20461;-76
2023/09/02 09:32:57;;;;;;;2.37;2.07;;;;;;;30.40;41.24;98328.69;5006444;28;20579;-76
2023/09/02 09:35:24;;;;;;;2.50;2.10;;;;;;;30.85;40.30;98331.25;5011385;28;20457;-77
2023/09/02 09:37:54;;;;;;;2.30;2.00;;;;;;;30.92;40.06;98331.56;5011778;28;20535;-76
2023/09/02 09:40:31;;;;;;;4.37;2.10;;;;;;;31.04;39.20;98328.94;5011585;28;20487;-76
2023/09/02 09:42:58;;;;;;;2.03;1.93;;;;;;;31.11;39.09;98328.47;5012652;28;20546;-76
2023/09/02 09:45:25;;;;;;;5.07;2.10;;;;;;;30.88;40.05;98331.41;5010663;28;20457;-77
2023/09/02 09:47:52;;;;;;;2.63;2.43;;;;;;;31.39;38.70;98321.38;5010885;28;20957;-76
2023/09/02 09:50:20;;;;;;;2.37;2.10;;;;;;;30.51;40.50;98321.66;5005838;28;20515;-77
2023/09/02 09:53:01;;;;;;;2.90;2.10;;;;;;;30.10;40.49;98321.19;5012201;28;20481;-77
2023/09/02 09:55:30;;;;;;;2.57;2.07;;;;;;;29.70;41.93;98321.13;5011725;28;20487;-77
2023/09/02 09:57:58;;;;;;;3.07;2.20;;;;;;;30.03;41.62;98325.28;5005497;28;20492;-77
2023/09/02 10:00:25;;;;;;;2.63;2.43;;;;;;;31.14;39.02;98317.47;5009207;28;20530;-77
2023/09/02 10:02:53;;;;;;;2.30;2.10;;;;;;;30.94;39.57;98313.31;5011376;28;20467;-77
2023/09/02 10:05:26;;;;;;;2.60;2.40;;;;;;;30.12;41.26;98321.69;5011510;28;20471;-77
2023/09/02 10:08:00;;;;;;;2.20;2.00;;;;;;;30.42;40.65;98320.78;5011137;28;20799;-77
2023/09/02 10:10:28;;;;;;;2.17;2.07;;;;;;;30.66;39.66;98324.00;5011397;28;20472;-76
2023/09/02 10:12:57;;;;;;;2.40;2.20;;;;;;;30.99;40.30;98317.94;5009998;28;20650;-77
2023/09/02 10:15:26;;;;;;;2.20;2.10;;;;;;;31.52;39.14;98319.53;5007846;28;20511;-77
2023/09/02 10:17:54;;;;;;;3.07;1.80;;;;;;;31.54;38.00;98314.44;5010429;28;20457;-77
2023/09/02 10:20:24;;;;;;;2.43;2.23;;;;;;;31.01;39.02;98329.59;5008744;28;20565;-77
2023/09/02 10:22:52;;;;;;;2.60;2.03;;;;;;;30.64;39.45;98319.88;5011635;28;20511;-77
2023/09/02 10:25:24;;;;;;;4.00;2.20;;;;;;;30.86;37.61;98318.94;5011155;28;20849;-76
2023/09/02 10:27:59;;;;;;;2.27;2.07;;;;;;;31.37;37.43;98316.13;5006920;28;20987;-77
2023/09/02 10:30:31;;;;;;;2.13;1.97;;;;;;;31.51;37.07;98320.72;5009143;28;20456;-77
2023/09/02 10:33:03;;;;;;;2.37;2.17;;;;;;;31.43;37.41;98318.75;5011546;28;20500;-77
2023/09/02 10:35:30;;;;;;;3.07;2.00;;;;;;;31.77;36.95;98318.69;5008691;28;20602;-77
2023/09/02 10:38:00;;;;;;;2.30;2.00;;;;;;;32.04;36.21;98323.88;5011224;28;20532;-77
2023/09/02 10:40:28;;;;;;;2.40;2.10;;;;;;;31.97;36.43;98305.94;5010923;28;20453;-77
2023/09/02 10:42:55;;;;;;;1.70;1.60;;;;;;;31.82;35.80;98320.50;5008430;28;20457;-77
2023/09/02 10:45:23;;;;;;;2.50;2.30;;;;;;;32.09;34.84;98313.63;5010164;28;20702;-77
2023/09/02 10:47:51;;;;;;;2.60;2.33;;;;;;;32.44;35.02;98315.13;5006133;28;21043;-77
2023/09/02 10:50:19;;;;;;;1.80;1.70;;;;;;;32.90;33.75;98324.56;5009236;28;20461;-77
2023/09/02 10:52:46;;;;;;;1.97;1.87;;;;;;;32.71;33.50;98319.41;5010878;28;21084;-77
2023/09/02 10:55:13;;;;;;;2.00;1.80;;;;;;;33.30;31.49;98314.50;5011062;28;20448;-77
2023/09/02 10:57:47;;;;;;;1.80;1.67;;;;;;;33.36;31.92;98313.13;5009846;28;20469;-77
2023/09/02 11:00:19;;;;;;;2.00;1.67;;;;;;;33.43;31.65;98306.97;5005243;28;20471;-77
2023/09/02 11:02:48;;;;;;;2.30;1.73;;;;;;;33.91;31.33;98314.69;5010748;28;20848;-77
2023/09/02 11:05:16;;;;;;;2.90;1.60;;;;;;;34.48;28.30;98313.81;5010520;28;20599;-77
2023/09/02 11:07:42;;;;;;;1.77;1.67;;;;;;;34.44;27.63;98295.22;5011174;28;20461;-77
2023/09/02 11:10:10;;;;;;;2.57;1.83;;;;;;;35.26;26.86;98299.34;5009484;28;20567;-77
2023/09/02 11:13:05;;;;;;;2.13;1.97;;;;;;;35.24;27.12;98301.69;5009282;28;20984;-77
2023/09/02 11:15:33;;;;;;;1.73;1.63;;;;;;;35.14;27.02;98302.19;5008085;28;20563;-77
2023/09/02 11:18:33;;;;;;;1.60;1.50;;;;;;;35.49;27.01;98308.06;5009359;28;20461;-77
2023/09/02 11:21:02;;;;;;;1.93;1.83;;;;;;;35.09;27.89;98296.81;5009953;28;20566;-77
2023/09/02 11:23:29;;;;;;;1.90;1.80;;;;;;;35.33;27.28;98293.13;5010300;28;20455;-77
2023/09/02 11:26:03;;;;;;;1.60;1.50;;;;;;;35.79;26.42;98302.88;5009989;28;20523;-77
2023/09/02 11:28:30;;;;;;;1.90;1.80;;;;;;;36.21;26.13;98293.88;5008856;28;20469;-77
2023/09/02 11:31:05;;;;;;;1.73;1.63;;;;;;;35.82;26.41;98295.69;5009779;28;20453;-77
2023/09/02 11:33:33;;;;;;;1.80;1.70;;;;;;;35.46;27.02;98296.69;5007700;28;20496;-78
2023/09/02 11:36:06;;;;;;;1.87;1.77;;;;;;;35.84;25.90;98290.50;5009695;28;20516;-77